createdAt,value
2022-08-26T00:01:10.432Z,18.91
2022-08-26T00:03:36.931Z,18.92
2022-08-26T00:06:03.539Z,18.94
2022-08-26T00:08:29.945Z,18.93
2022-08-26T00:10:56.356Z,18.93
2022-08-26T00:13:26.281Z,18.90
2022-08-26T00:15:53.518Z,18.90
2022-08-26T00:18:22.258Z,18.88
2022-08-26T00:20:49.692Z,18.87
2022-08-26T00:23:16.489Z,18.83
2022-08-26T00:25:43.282Z,18.78
2022-08-26T00:28:10.964Z,18.76
2022-08-26T00:30:37.932Z,18.69
2022-08-26T00:33:06.048Z,18.60
2022-08-26T00:35:34.635Z,18.53
2022-08-26T00:38:02.685Z,18.52
2022-08-26T00:40:36.594Z,18.51
2022-08-26T00:43:09.308Z,18.49
2022-08-26T00:45:46.928Z,18.51
2022-08-26T00:48:17.982Z,18.49
2022-08-26T00:50:54.324Z,18.48
2022-08-26T00:53:24.084Z,18.46
2022-08-26T00:56:49.429Z,18.43
2022-08-26T00:59:17.776Z,18.37
2022-08-26T01:01:46.067Z,18.37
2022-08-26T01:04:17.662Z,18.36
2022-08-26T01:06:44.855Z,18.36
2022-08-26T01:09:11.914Z,18.35
2022-08-26T01:11:38.730Z,18.36
2022-08-26T01:14:06.228Z,18.37
2022-08-26T01:16:35.481Z,18.37
2022-08-26T01:19:23.727Z,18.35
2022-08-26T01:21:57.048Z,18.37
2022-08-26T01:24:27.507Z,18.39
2022-08-26T01:26:57.813Z,18.40
2022-08-26T01:29:25.834Z,18.35
2022-08-26T01:31:55.780Z,18.29
2022-08-26T01:34:35.094Z,18.23
2022-08-26T01:37:03.053Z,18.14
2022-08-26T01:39:31.552Z,18.04
2022-08-26T01:41:59.209Z,17.97
2022-08-26T01:44:36.189Z,17.94
2022-08-26T01:47:03.421Z,17.93
2022-08-26T01:49:35.737Z,17.88
2022-08-26T01:52:04.403Z,17.87
2022-08-26T01:54:32.021Z,17.86
2022-08-26T01:56:58.812Z,17.86
2022-08-26T01:59:25.945Z,17.84
2022-08-26T02:01:53.164Z,17.82
2022-08-26T02:04:29.075Z,17.80
2022-08-26T02:06:57.129Z,17.76
2022-08-26T02:09:25.812Z,17.77
2022-08-26T02:11:54.249Z,17.80
2022-08-26T02:14:44.035Z,17.80
2022-08-26T02:17:11.282Z,17.82
2022-08-26T02:19:40.873Z,17.84
2022-08-26T02:22:13.778Z,17.86
2022-08-26T02:24:54.721Z,17.89
2022-08-26T02:27:32.195Z,17.89
2022-08-26T02:30:11.553Z,17.89
2022-08-26T02:32:40.221Z,17.92
2022-08-26T02:35:09.668Z,17.94
2022-08-26T02:37:36.195Z,17.95
2022-08-26T02:40:04.702Z,17.96
2022-08-26T02:42:31.146Z,17.96
2022-08-26T02:44:57.577Z,17.98
2022-08-26T02:47:25.463Z,17.98
2022-08-26T02:49:55.741Z,17.99
2022-08-26T02:52:22.166Z,18.00
2022-08-26T02:54:49.631Z,18.03
2022-08-26T02:57:16.914Z,18.02
2022-08-26T02:59:43.853Z,18.03
2022-08-26T03:02:12.195Z,18.04
2022-08-26T03:04:39.821Z,18.06
2022-08-26T03:07:06.976Z,18.05
2022-08-26T03:09:33.823Z,18.08
2022-08-26T03:12:00.291Z,18.05
2022-08-26T03:14:27.049Z,18.04
2022-08-26T03:16:54.426Z,18.02
2022-08-26T03:19:22.937Z,18.00
2022-08-26T03:21:49.992Z,18.01
2022-08-26T03:24:19.281Z,18.00
2022-08-26T03:26:52.455Z,17.99
2022-08-26T03:29:37.796Z,17.96
2022-08-26T03:32:06.073Z,17.98
2022-08-26T03:34:32.517Z,17.97
2022-08-26T03:36:58.981Z,17.96
2022-08-26T03:39:25.504Z,17.93
2022-08-26T03:41:52.395Z,17.93
2022-08-26T03:44:19.853Z,17.92
2022-08-26T03:46:46.340Z,17.89
2022-08-26T03:49:13.153Z,17.91
2022-08-26T03:51:41.632Z,17.92
2022-08-26T03:54:09.285Z,17.92
2022-08-26T03:56:36.748Z,17.93
2022-08-26T03:59:04.492Z,17.92
2022-08-26T04:01:32.123Z,17.94
2022-08-26T04:04:00.251Z,17.93
2022-08-26T04:06:29.060Z,17.94
2022-08-26T04:08:57.355Z,17.92
2022-08-26T04:11:28.436Z,17.93
2022-08-26T04:14:01.212Z,17.91
2022-08-26T04:16:29.480Z,17.89
2022-08-26T04:18:57.414Z,17.89
2022-08-26T04:21:25.323Z,17.89
2022-08-26T04:23:53.747Z,17.93
2022-08-26T04:26:21.914Z,17.91
2022-08-26T04:28:49.807Z,17.89
2022-08-26T04:31:18.197Z,17.88
2022-08-26T04:33:47.483Z,17.87
2022-08-26T04:36:17.425Z,17.90
2022-08-26T04:38:46.318Z,17.90
2022-08-26T04:41:15.614Z,17.91
2022-08-26T04:43:45.459Z,17.91
2022-08-26T04:46:16.018Z,17.90
2022-08-26T04:48:42.441Z,17.90
2022-08-26T04:51:10.047Z,17.88
2022-08-26T04:53:37.287Z,17.86
2022-08-26T04:56:04.619Z,17.85
2022-08-26T04:58:31.855Z,17.85
2022-08-26T05:00:58.453Z,17.85
2022-08-26T05:03:27.051Z,17.87
2022-08-26T05:05:54.425Z,17.84
2022-08-26T05:08:22.379Z,17.85
2022-08-26T05:10:54.567Z,17.84
2022-08-26T05:13:25.414Z,17.86
2022-08-26T05:15:52.531Z,17.85
2022-08-26T05:18:22.788Z,17.85
2022-08-26T05:20:53.963Z,17.84
2022-08-26T05:23:23.187Z,17.85
2022-08-26T05:25:55.785Z,17.88
2022-08-26T05:28:26.257Z,17.90
2022-08-26T05:30:52.839Z,17.88
2022-08-26T05:33:20.017Z,17.89
2022-08-26T05:35:47.263Z,17.90
2022-08-26T05:38:21.542Z,17.92
2022-08-26T05:40:49.503Z,17.94
2022-08-26T05:43:20.913Z,17.95
2022-08-26T05:45:49.785Z,17.94
2022-08-26T05:48:19.112Z,17.93
2022-08-26T05:50:52.495Z,17.92
2022-08-26T05:53:21.257Z,17.90
2022-08-26T05:55:50.326Z,17.93
2022-08-26T05:58:22.286Z,17.95
2022-08-26T06:01:02.285Z,17.95
2022-08-26T06:03:29.938Z,17.95
2022-08-26T06:05:56.695Z,17.92
2022-08-26T06:08:24.015Z,17.92
2022-08-26T06:10:53.847Z,18.00
2022-08-26T06:13:23.962Z,18.05
2022-08-26T06:15:51.487Z,18.09
2022-08-26T06:18:32.674Z,18.09
2022-08-26T06:20:59.684Z,18.10
2022-08-26T06:23:47.641Z,18.15
2022-08-26T06:26:15.995Z,18.11
2022-08-26T06:28:45.643Z,18.05
2022-08-26T06:31:13.593Z,18.09
2022-08-26T06:33:40.142Z,18.14
2022-08-26T06:36:06.863Z,18.15
2022-08-26T06:38:33.821Z,18.14
2022-08-26T06:41:02.998Z,18.18
2022-08-26T06:43:29.623Z,18.20
2022-08-26T06:46:04.999Z,18.27
2022-08-26T06:48:31.638Z,18.27
2022-08-26T06:51:15.949Z,18.27
2022-08-26T06:53:46.745Z,18.31
2022-08-26T06:56:15.643Z,18.35
2022-08-26T06:58:42.537Z,18.36
2022-08-26T07:01:17.236Z,18.36
2022-08-26T07:03:45.407Z,18.41
2022-08-26T07:06:13.838Z,18.41
2022-08-26T07:08:40.437Z,18.41
2022-08-26T07:11:09.066Z,18.46
2022-08-26T07:13:37.572Z,18.57
2022-08-26T07:16:06.162Z,18.64
2022-08-26T07:18:35.163Z,18.56
2022-08-26T07:21:06.025Z,18.49
2022-08-26T07:23:33.517Z,18.45
2022-08-26T07:26:00.177Z,18.48
2022-08-26T07:28:26.875Z,18.46
2022-08-26T07:30:53.293Z,18.41
2022-08-26T07:33:19.747Z,18.48
2022-08-26T07:35:46.198Z,18.49
2022-08-26T07:38:13.315Z,18.52
2022-08-26T07:40:40.950Z,18.71
2022-08-26T07:43:09.689Z,18.73
2022-08-26T07:45:36.742Z,18.88
2022-08-26T07:48:03.945Z,19.02
2022-08-26T07:50:50.219Z,19.09
2022-08-26T07:53:18.110Z,19.07
2022-08-26T07:55:46.247Z,19.00
2022-08-26T07:58:12.709Z,19.10
2022-08-26T08:00:39.259Z,19.13
2022-08-26T08:03:06.396Z,19.12
2022-08-26T08:05:33.979Z,19.09
2022-08-26T08:08:26.602Z,19.13
2022-08-26T08:10:49.422Z,19.14
2022-08-26T08:13:16.134Z,19.07
2022-08-26T08:15:43.023Z,19.18
2022-08-26T08:18:15.590Z,19.15
2022-08-26T08:20:47.623Z,19.23
2022-08-26T08:23:25.789Z,19.18
2022-08-26T08:26:01.531Z,19.11
2022-08-26T08:28:28.359Z,19.15
2022-08-26T08:30:54.988Z,19.21
2022-08-26T08:33:21.480Z,19.23
2022-08-26T08:35:48.426Z,19.47
2022-08-26T08:38:15.632Z,19.65
2022-08-26T08:40:45.636Z,19.79
2022-08-26T08:43:14.960Z,19.64
2022-08-26T08:45:41.930Z,19.58
2022-08-26T08:48:22.630Z,19.38
2022-08-26T08:51:03.271Z,19.28
2022-08-26T08:53:43.094Z,19.23
2022-08-26T08:56:33.098Z,19.28
2022-08-26T08:59:05.386Z,19.32
2022-08-26T09:01:44.643Z,19.44
2022-08-26T09:04:43.657Z,19.70
2022-08-26T09:07:15.829Z,19.71
2022-08-26T09:09:47.544Z,19.42
2022-08-26T09:12:21.021Z,19.27
2022-08-26T09:15:20.321Z,19.46
2022-08-26T09:18:02.753Z,19.65
2022-08-26T09:20:52.958Z,19.70
2022-08-26T09:23:19.477Z,19.65
2022-08-26T09:26:00.017Z,19.65
2022-08-26T09:28:29.019Z,19.65
2022-08-26T09:31:11.498Z,19.80
2022-08-26T09:33:38.178Z,19.97
2022-08-26T09:36:43.990Z,19.74
2022-08-26T09:39:28.242Z,19.77
2022-08-26T09:42:14.178Z,19.68
2022-08-26T09:44:54.994Z,19.87
2022-08-26T09:47:30.581Z,20.06
2022-08-26T09:50:29.393Z,20.03
2022-08-26T09:53:16.082Z,19.88
2022-08-26T09:55:45.563Z,19.83
2022-08-26T09:58:14.886Z,19.95
2022-08-26T10:00:52.707Z,19.86
2022-08-26T10:03:28.621Z,19.80
2022-08-26T10:06:24.157Z,19.66
2022-08-26T10:08:54.709Z,19.90
2022-08-26T10:11:31.193Z,19.97
2022-08-26T10:14:10.961Z,20.51
2022-08-26T10:17:06.871Z,20.37
2022-08-26T10:20:08.023Z,20.67
2022-08-26T10:22:59.255Z,20.71
2022-08-26T10:25:32.538Z,20.66
2022-08-26T10:28:12.035Z,20.81
2022-08-26T10:30:45.713Z,20.73
2022-08-26T10:33:18.388Z,21.02
2022-08-26T10:35:58.385Z,21.36
2022-08-26T10:38:34.625Z,21.20
2022-08-26T10:41:09.924Z,21.09
2022-08-26T10:43:42.597Z,21.55
2022-08-26T10:46:16.257Z,21.04
2022-08-26T10:48:53.570Z,20.65
2022-08-26T10:51:27.054Z,20.55
2022-08-26T10:53:54.447Z,20.62
2022-08-26T10:56:36.930Z,20.89
2022-08-26T10:59:28.943Z,21.16
2022-08-26T11:02:13.732Z,21.21
2022-08-26T11:05:03.436Z,21.57
2022-08-26T11:07:40.294Z,21.32
2022-08-26T11:10:18.424Z,21.05
2022-08-26T11:12:45.388Z,21.11
2022-08-26T11:15:24.492Z,21.37
2022-08-26T11:17:51.270Z,21.23
2022-08-26T11:20:23.822Z,21.15
2022-08-26T11:22:52.743Z,21.08
2022-08-26T11:25:23.533Z,20.91
2022-08-26T11:27:56.874Z,21.10
2022-08-26T11:30:24.218Z,21.03
2022-08-26T11:32:54.098Z,21.25
2022-08-26T11:35:20.559Z,21.13
2022-08-26T11:37:56.524Z,20.88
2022-08-26T11:40:33.058Z,21.04
2022-08-26T11:43:07.606Z,21.27
2022-08-26T11:45:38.471Z,21.45
2022-08-26T11:48:28.952Z,21.05
2022-08-26T11:51:07.776Z,20.76
2022-08-26T11:53:40.747Z,20.66
2022-08-26T11:56:31.646Z,20.68
2022-08-26T11:59:00.461Z,20.59
2022-08-26T12:01:32.451Z,20.50
2022-08-26T12:03:59.911Z,20.53
2022-08-26T12:06:37.507Z,20.71
2022-08-26T12:09:14.632Z,21.12
2022-08-26T12:11:41.539Z,20.96
2022-08-26T12:14:22.482Z,20.78
2022-08-26T12:16:48.991Z,20.81
2022-08-26T12:19:28.295Z,20.86
2022-08-26T12:22:07.153Z,21.26
2022-08-26T12:24:33.531Z,21.32
2022-08-26T12:27:11.573Z,21.45
2022-08-26T12:29:39.174Z,21.34
2022-08-26T12:32:17.399Z,21.44
2022-08-26T12:34:47.309Z,21.51
2022-08-26T12:37:15.378Z,21.40
2022-08-26T12:39:44.126Z,21.59
2022-08-26T12:42:15.513Z,21.96
2022-08-26T12:45:01.645Z,22.43
2022-08-26T12:47:42.858Z,22.60
2022-08-26T12:50:20.645Z,22.79
2022-08-26T12:53:09.112Z,23.37
2022-08-26T12:55:35.556Z,23.25
2022-08-26T12:58:20.970Z,22.67
2022-08-26T13:01:08.357Z,22.08
2022-08-26T13:03:34.790Z,21.67
2022-08-26T13:06:34.915Z,21.48
2022-08-26T13:09:09.105Z,22.15
2022-08-26T13:11:38.552Z,23.40
2022-08-26T13:14:10.327Z,24.05
2022-08-26T13:16:38.600Z,23.10
2022-08-26T13:19:10.293Z,22.51
2022-08-26T13:21:47.878Z,22.21
2022-08-26T13:24:17.937Z,22.18
2022-08-26T13:26:46.304Z,22.32
2022-08-26T13:29:13.165Z,22.40
2022-08-26T13:31:42.324Z,22.28
2022-08-26T13:34:11.549Z,21.72
2022-08-26T13:36:38.020Z,21.56
2022-08-26T13:39:05.756Z,21.50
2022-08-26T13:41:32.579Z,21.59
2022-08-26T13:43:59.798Z,21.67
2022-08-26T13:46:27.751Z,22.04
2022-08-26T13:48:54.579Z,22.43
2022-08-26T13:51:22.645Z,22.58
2022-08-26T13:53:50.494Z,22.63
2022-08-26T13:56:18.656Z,22.17
2022-08-26T13:58:46.216Z,22.10
2022-08-26T14:01:13.159Z,21.85
2022-08-26T14:03:39.665Z,22.07
2022-08-26T14:06:06.104Z,21.68
2022-08-26T14:08:33.609Z,22.09
2022-08-26T14:11:00.541Z,22.56
2022-08-26T14:13:27.030Z,22.22
2022-08-26T14:15:53.915Z,23.83
2022-08-26T14:18:27.905Z,24.66
2022-08-26T14:20:55.035Z,27.01
2022-08-26T14:23:22.544Z,26.25
2022-08-26T14:25:49.172Z,27.42
2022-08-26T14:28:15.677Z,27.67
2022-08-26T14:30:44.003Z,26.11
2022-08-26T14:33:13.043Z,27.11
2022-08-26T14:35:39.521Z,25.56
2022-08-26T14:38:06.195Z,23.45
2022-08-26T14:40:34.038Z,23.07
2022-08-26T14:43:05.882Z,22.95
2022-08-26T14:45:37.534Z,24.29
2022-08-26T14:48:04.186Z,23.41
2022-08-26T14:50:30.656Z,22.21
2022-08-26T14:53:15.911Z,21.97
2022-08-26T14:55:42.480Z,21.82
2022-08-26T14:58:09.983Z,21.57
2022-08-26T15:00:37.845Z,22.17
2022-08-26T15:03:05.482Z,22.39
2022-08-26T15:05:33.360Z,22.01
2022-08-26T15:08:00.353Z,21.34
2022-08-26T15:10:26.830Z,21.70
2022-08-26T15:12:53.302Z,21.25
2022-08-26T15:15:19.819Z,20.88
2022-08-26T15:17:46.216Z,20.44
2022-08-26T15:20:15.824Z,20.18
2022-08-26T15:22:43.107Z,20.30
2022-08-26T15:25:10.781Z,20.57
2022-08-26T15:27:37.377Z,20.92
2022-08-26T15:30:10.599Z,20.89
2022-08-26T15:32:37.064Z,20.87
2022-08-26T15:35:08.889Z,20.77
2022-08-26T15:37:35.985Z,20.90
2022-08-26T15:40:02.786Z,20.82
2022-08-26T15:42:29.233Z,20.69
2022-08-26T15:44:55.689Z,20.68
2022-08-26T15:47:23.665Z,20.93
2022-08-26T15:49:50.079Z,21.17
2022-08-26T15:52:17.218Z,20.97
2022-08-26T15:54:44.036Z,21.39
2022-08-26T15:57:12.344Z,21.70
2022-08-26T15:59:40.275Z,21.88
2022-08-26T16:02:07.212Z,22.11
2022-08-26T16:04:33.714Z,21.38
2022-08-26T16:07:00.339Z,22.89
2022-08-26T16:09:27.747Z,23.35
2022-08-26T16:11:56.661Z,24.62
2022-08-26T16:14:23.982Z,23.67
2022-08-26T16:16:50.800Z,21.52
2022-08-26T16:19:17.766Z,20.67
2022-08-26T16:21:44.739Z,22.05
2022-08-26T16:24:12.011Z,22.57
2022-08-26T16:26:40.180Z,25.07
2022-08-26T16:29:09.990Z,25.92
2022-08-26T16:31:38.242Z,25.69
2022-08-26T16:34:06.084Z,26.31
2022-08-26T16:36:32.965Z,25.73
2022-08-26T16:38:59.423Z,26.60
2022-08-26T16:41:29.462Z,25.95
2022-08-26T16:43:56.181Z,27.10
2022-08-26T16:46:25.729Z,23.48
2022-08-26T16:48:56.797Z,21.42
2022-08-26T16:51:26.784Z,24.23
2022-08-26T16:53:54.635Z,25.07
2022-08-26T16:56:33.604Z,25.87
2022-08-26T16:59:05.058Z,23.44
2022-08-26T17:01:32.169Z,25.90
2022-08-26T17:03:58.714Z,26.67
2022-08-26T17:06:25.172Z,26.84
2022-08-26T17:08:52.409Z,25.47
2022-08-26T17:11:19.620Z,26.15
2022-08-26T17:13:46.107Z,24.96
2022-08-26T17:16:14.410Z,25.32
2022-08-26T17:18:41.084Z,26.73
2022-08-26T17:21:09.997Z,27.13
2022-08-26T17:23:40.877Z,26.35
2022-08-26T17:26:08.036Z,26.42
2022-08-26T17:28:34.710Z,24.91
2022-08-26T17:31:01.842Z,21.97
2022-08-26T17:33:28.909Z,20.61
2022-08-26T17:35:55.850Z,19.72
2022-08-26T17:38:22.875Z,19.33
2022-08-26T17:40:49.856Z,19.08
2022-08-26T17:43:17.168Z,18.98
2022-08-26T17:45:43.617Z,18.84
2022-08-26T17:48:10.990Z,18.58
2022-08-26T17:50:42.251Z,18.46
2022-08-26T17:53:08.930Z,18.42
2022-08-26T17:55:41.628Z,18.24
2022-08-26T17:58:11.784Z,18.05
2022-08-26T18:00:44.701Z,17.87
2022-08-26T18:03:11.404Z,17.72
2022-08-26T18:05:37.897Z,17.60
2022-08-26T18:08:04.397Z,17.51
2022-08-26T18:10:31.317Z,17.46
2022-08-26T18:12:57.811Z,17.38
2022-08-26T18:15:24.287Z,17.32
2022-08-26T18:17:50.842Z,17.19
2022-08-26T18:20:19.195Z,17.12
2022-08-26T18:22:47.427Z,17.02
2022-08-26T18:25:15.173Z,16.95
2022-08-26T18:27:41.829Z,16.91
2022-08-26T18:30:16.613Z,16.81
2022-08-26T18:32:43.973Z,16.71
2022-08-26T18:35:11.426Z,16.65
2022-08-26T18:37:37.858Z,16.56
2022-08-26T18:40:06.105Z,16.48
2022-08-26T18:42:32.704Z,16.39
2022-08-26T18:44:59.481Z,16.31
2022-08-26T18:47:25.874Z,16.22
2022-08-26T18:49:52.313Z,16.19
2022-08-26T18:52:18.710Z,16.16
2022-08-26T18:54:45.184Z,16.11
2022-08-26T18:57:12.051Z,16.01
2022-08-26T18:59:38.420Z,15.96
2022-08-26T19:02:05.267Z,15.84
2022-08-26T19:04:31.972Z,15.78
2022-08-26T19:06:58.516Z,15.69
2022-08-26T19:09:26.297Z,15.60
2022-08-26T19:11:53.772Z,15.56
2022-08-26T19:14:20.309Z,15.56
2022-08-26T19:16:49.600Z,15.53
2022-08-26T19:19:17.012Z,15.55
2022-08-26T19:21:43.637Z,15.52
2022-08-26T19:24:15.434Z,15.32
2022-08-26T19:26:46.236Z,15.21
2022-08-26T19:29:13.754Z,15.15
2022-08-26T19:31:40.736Z,15.17
2022-08-26T19:34:10.263Z,15.13
2022-08-26T19:36:37.702Z,15.17
2022-08-26T19:39:05.692Z,15.34
2022-08-26T19:41:37.936Z,15.34
2022-08-26T19:44:12.755Z,15.24
2022-08-26T19:46:40.216Z,15.14
2022-08-26T19:49:06.839Z,15.10
2022-08-26T19:51:35.293Z,15.09
2022-08-26T19:54:02.223Z,15.13
2022-08-26T19:56:28.945Z,15.20
2022-08-26T19:58:56.066Z,15.33
2022-08-26T20:01:22.617Z,15.45
2022-08-26T20:03:49.634Z,15.39
2022-08-26T20:06:16.565Z,15.27
2022-08-26T20:08:44.173Z,15.21
2022-08-26T20:11:14.471Z,15.24
2022-08-26T20:13:41.467Z,15.31
2022-08-26T20:16:08.078Z,15.45
2022-08-26T20:18:53.009Z,15.57
2022-08-26T20:21:28.304Z,15.56
2022-08-26T20:24:04.763Z,15.48
2022-08-26T20:26:35.150Z,15.48
2022-08-26T20:29:02.187Z,15.35
2022-08-26T20:31:28.846Z,15.29
2022-08-26T20:33:56.378Z,15.27
2022-08-26T20:36:25.793Z,15.35
2022-08-26T20:38:53.141Z,15.48
2022-08-26T20:41:19.626Z,15.57
2022-08-26T20:43:46.993Z,15.57
2022-08-26T20:46:17.981Z,15.55
2022-08-26T20:48:46.758Z,15.44
2022-08-26T20:51:13.233Z,15.29
2022-08-26T20:53:39.726Z,15.20
2022-08-26T20:56:09.183Z,15.10
2022-08-26T20:58:36.455Z,15.21
2022-08-26T21:01:07.501Z,15.27
2022-08-26T21:03:36.024Z,15.08
2022-08-26T21:06:03.506Z,14.94
2022-08-26T21:08:29.954Z,14.89
2022-08-26T21:10:59.589Z,14.75
2022-08-26T21:13:26.080Z,14.65
2022-08-26T21:15:56.401Z,14.62
2022-08-26T21:18:22.813Z,14.56
2022-08-26T21:20:51.465Z,14.49
2022-08-26T21:23:18.709Z,14.44
2022-08-26T21:25:46.377Z,14.43
2022-08-26T21:28:12.874Z,14.58
2022-08-26T21:30:40.889Z,14.50
2022-08-26T21:33:08.147Z,14.38
2022-08-26T21:35:34.739Z,14.32
2022-08-26T21:38:01.360Z,14.32
2022-08-26T21:40:28.041Z,14.27
2022-08-26T21:42:54.568Z,14.31
2022-08-26T21:45:21.002Z,14.29
2022-08-26T21:47:47.369Z,14.31
2022-08-26T21:50:13.847Z,14.27
2022-08-26T21:52:40.301Z,14.18
2022-08-26T21:55:09.116Z,14.23
2022-08-26T21:57:38.042Z,14.28
2022-08-26T22:00:08.333Z,14.23
2022-08-26T22:02:34.924Z,14.20
2022-08-26T22:05:01.461Z,14.10
2022-08-26T22:07:27.874Z,14.10
2022-08-26T22:09:54.303Z,13.99
2022-08-26T22:12:20.715Z,13.88
2022-08-26T22:14:47.881Z,13.86
2022-08-26T22:17:14.876Z,13.83
2022-08-26T22:19:46.308Z,13.83
2022-08-26T22:22:14.292Z,13.86
2022-08-26T22:24:40.792Z,13.92
2022-08-26T22:27:07.190Z,13.94
2022-08-26T22:29:33.640Z,13.89
2022-08-26T22:32:01.043Z,13.89
2022-08-26T22:34:28.050Z,13.80
2022-08-26T22:36:54.762Z,13.71
2022-08-26T22:39:23.308Z,13.64
2022-08-26T22:41:50.087Z,13.65
2022-08-26T22:44:18.103Z,13.62
2022-08-26T22:46:45.204Z,13.54
2022-08-26T22:49:16.355Z,13.47
2022-08-26T22:51:46.615Z,13.40
2022-08-26T22:54:13.559Z,13.36
2022-08-26T22:56:40.670Z,13.33
2022-08-26T22:59:07.885Z,13.26
2022-08-26T23:01:37.137Z,13.21
2022-08-26T23:04:06.154Z,13.18
2022-08-26T23:06:39.480Z,13.17
2022-08-26T23:09:07.202Z,13.10
2022-08-26T23:11:34.348Z,13.03
2022-08-26T23:14:06.623Z,13.00
2022-08-26T23:16:39.361Z,12.97
2022-08-26T23:19:06.025Z,12.95
2022-08-26T23:21:33.201Z,12.89
2022-08-26T23:23:59.828Z,12.86
2022-08-26T23:26:26.442Z,12.81
2022-08-26T23:28:53.270Z,12.79
2022-08-26T23:31:19.823Z,12.77
2022-08-26T23:34:05.042Z,12.75
2022-08-26T23:36:31.615Z,12.72
2022-08-26T23:39:02.265Z,12.70
2022-08-26T23:41:28.638Z,12.69
2022-08-26T23:43:55.135Z,12.68
2022-08-26T23:46:21.530Z,12.66
2022-08-26T23:48:48.388Z,12.62
2022-08-26T23:51:33.457Z,12.61
2022-08-26T23:53:59.881Z,12.60
2022-08-26T23:56:26.711Z,12.56
2022-08-26T23:58:54.127Z,12.50
